Time;durP1;ratioP1;P1;durP2;ratioP2;P2;SDS_P1;SDS_P2;PMS_P1;PMS_P2;Temp;Humidity;BMP_temperature;BMP_pressure;BME280_temperature;BME280_humidity;BME280_pressure;Samples;Min_cycle;Max_cycle;Signal;HPM_P1;HPM_P2
2022/07/13 00:00:19;;;;;;;;;;;25.30;47.10;;;;;;2091945;28;1391;-83
2022/07/13 00:01:19;;;;;;;;;;;25.30;47.10;;;;;;2100114;28;1090;-83
2022/07/13 00:02:20;;;;;;;;;;;25.30;47.10;;;;;;2100718;28;1890;-83
2022/07/13 00:03:20;;;;;;;;;;;25.30;47.10;;;;;;2100037;28;1210;-83
2022/07/13 00:04:20;;;;;;;;;;;25.30;47.10;;;;;;2100232;28;850;-83
2022/07/13 00:05:21;;;;;;;;;;;25.30;47.10;;;;;;2099912;28;1253;-83
2022/07/13 00:06:22;;;;;;;;;;;25.30;47.10;;;;;;2100139;28;979;-83
2022/07/13 00:07:23;;;;;;;;;;;25.30;47.10;;;;;;2100690;28;884;-83
2022/07/13 00:08:23;;;;;;;;;;;25.30;47.10;;;;;;2099967;28;1520;-83
2022/07/13 00:09:24;;;;;;;;;;;25.30;47.10;;;;;;2100201;28;802;-83
2022/07/13 00:10:24;;;;;;;;;;;25.30;47.10;;;;;;2099976;28;1221;-82
2022/07/13 00:11:25;;;;;;;;;;;25.30;47.10;;;;;;2100048;28;858;-83
2022/07/13 00:12:25;;;;;;;;;;;25.30;47.10;;;;;;2108444;28;1384;-83
2022/07/13 00:13:25;;;;;;;;;;;25.30;47.10;;;;;;2108527;28;1039;-83
2022/07/13 00:14:26;;;;;;;;;;;25.30;47.10;;;;;;2100705;28;872;-83
2022/07/13 00:15:26;;;;;;;;;;;25.30;47.10;;;;;;2100518;28;1288;-83
2022/07/13 00:16:26;;;;;;;;;;;25.30;47.10;;;;;;2100752;28;837;-83
2022/07/13 00:17:27;;;;;;;;;;;25.30;47.10;;;;;;2100544;28;877;-83
2022/07/13 00:18:27;;;;;;;;;;;25.30;47.10;;;;;;2100600;28;969;-83
2022/07/13 00:19:28;;;;;;;;;;;25.30;47.10;;;;;;2100716;28;1027;-83
2022/07/13 00:20:28;;;;;;;;;;;25.30;47.10;;;;;;2099943;28;1410;-83
2022/07/13 00:21:28;;;;;;;;;;;25.30;47.10;;;;;;2091733;28;1278;-83
2022/07/13 00:22:29;;;;;;;;;;;25.30;47.00;;;;;;2099909;28;1894;-83
2022/07/13 00:23:29;;;;;;;;;;;25.30;47.10;;;;;;2099962;28;1411;-83
2022/07/13 00:24:29;;;;;;;;;;;25.30;47.10;;;;;;2091537;28;1363;-83
2022/07/13 00:25:30;;;;;;;;;;;25.30;47.00;;;;;;2091842;28;1259;-83
2022/07/13 00:26:30;;;;;;;;;;;25.30;47.00;;;;;;2099949;28;940;-83
2022/07/13 00:27:30;;;;;;;;;;;25.30;47.10;;;;;;2099859;28;1242;-83
2022/07/13 00:28:31;;;;;;;;;;;25.30;47.00;;;;;;2091732;28;1391;-83
2022/07/13 00:29:31;;;;;;;;;;;25.30;47.00;;;;;;2091570;28;1289;-83
2022/07/13 00:30:31;;;;;;;;;;;25.30;47.00;;;;;;2091570;28;1136;-83
2022/07/13 00:31:32;;;;;;;;;;;25.30;47.00;;;;;;2091497;28;1337;-84
2022/07/13 00:32:32;;;;;;;;;;;25.30;47.00;;;;;;2091701;28;1384;-83
2022/07/13 00:33:32;;;;;;;;;;;25.30;47.00;;;;;;2091452;28;1628;-83
2022/07/13 00:34:34;;;;;;;;;;;25.30;47.00;;;;;;2091459;28;1240;-83
2022/07/13 00:35:35;;;;;;;;;;;25.30;47.00;;;;;;2100026;28;928;-83
2022/07/13 00:36:37;;;;;;;;;;;25.30;47.00;;;;;;2100005;28;1249;-83
2022/07/13 00:37:37;;;;;;;;;;;25.30;47.00;;;;;;2091799;28;1324;-83
2022/07/13 00:38:38;;;;;;;;;;;25.30;47.00;;;;;;2091590;28;1370;-83
2022/07/13 00:39:38;;;;;;;;;;;25.30;47.00;;;;;;2091451;28;1067;-83
2022/07/13 00:40:38;;;;;;;;;;;25.30;47.00;;;;;;2091651;28;1261;-83
2022/07/13 00:41:39;;;;;;;;;;;25.30;47.00;;;;;;2091643;28;1131;-83
2022/07/13 00:42:39;;;;;;;;;;;25.30;47.00;;;;;;2091170;28;1969;-83
2022/07/13 00:43:40;;;;;;;;;;;25.30;46.90;;;;;;2091447;28;1349;-83
2022/07/13 00:44:40;;;;;;;;;;;25.30;47.00;;;;;;2091361;28;1423;-83
2022/07/13 00:45:40;;;;;;;;;;;25.30;46.90;;;;;;2099665;28;1309;-83
2022/07/13 00:46:44;;;;;;;;;;;25.30;47.00;;;;;;2091470;28;1271;-83
2022/07/13 00:47:45;;;;;;;;;;;25.30;46.90;;;;;;2091847;28;1265;-83
2022/07/13 00:48:46;;;;;;;;;;;25.30;46.90;;;;;;2091484;28;1416;-83
2022/07/13 00:49:46;;;;;;;;;;;25.30;46.90;;;;;;2091544;28;1283;-83
2022/07/13 00:50:46;;;;;;;;;;;25.30;46.90;;;;;;2099787;28;1251;-83
2022/07/13 00:51:47;;;;;;;;;;;25.30;46.90;;;;;;2091278;28;1214;-83
2022/07/13 00:52:47;;;;;;;;;;;25.30;46.90;;;;;;2099709;28;1404;-83
2022/07/13 00:53:48;;;;;;;;;;;25.30;46.90;;;;;;2091489;28;1184;-83
2022/07/13 00:54:48;;;;;;;;;;;25.30;46.90;;;;;;2099605;28;1297;-83
2022/07/13 00:55:48;;;;;;;;;;;25.30;46.90;;;;;;2099587;28;1173;-83
2022/07/13 00:56:49;;;;;;;;;;;25.30;46.90;;;;;;2091164;28;1376;-83
2022/07/13 00:57:49;;;;;;;;;;;25.30;46.90;;;;;;2099882;28;995;-83
2022/07/13 00:58:49;;;;;;;;;;;25.30;46.80;;;;;;2100147;28;1068;-83
2022/07/13 00:59:50;;;;;;;;;;;25.30;46.80;;;;;;2100340;28;906;-83
2022/07/13 01:00:51;;;;;;;;;;;25.30;46.90;;;;;;2100924;28;965;-82
2022/07/13 01:01:51;;;;;;;;;;;25.30;46.80;;;;;;2100258;28;806;-83
2022/07/13 01:02:51;;;;;;;;;;;25.30;46.90;;;;;;2099512;28;1898;-83
2022/07/13 01:03:52;;;;;;;;;;;25.30;46.90;;;;;;2091355;28;1402;-83
2022/07/13 01:04:52;;;;;;;;;;;25.30;46.90;;;;;;2099668;28;1275;-83
2022/07/13 01:05:52;;;;;;;;;;;25.30;46.90;;;;;;2099795;28;1276;-83
2022/07/13 01:06:53;;;;;;;;;;;25.30;47.00;;;;;;2091335;28;1400;-83
2022/07/13 01:07:54;;;;;;;;;;;25.30;47.00;;;;;;2091461;28;1201;-83
2022/07/13 01:08:54;;;;;;;;;;;25.30;47.00;;;;;;2099922;28;839;-82
2022/07/13 01:09:54;;;;;;;;;;;25.30;47.00;;;;;;2099645;28;1364;-83
2022/07/13 01:10:55;;;;;;;;;;;25.30;47.00;;;;;;2091550;28;1494;-82
2022/07/13 01:11:55;;;;;;;;;;;25.30;47.10;;;;;;2091126;28;1373;-83
2022/07/13 01:12:56;;;;;;;;;;;25.30;47.10;;;;;;2091471;28;1198;-83
2022/07/13 01:13:56;;;;;;;;;;;25.30;47.10;;;;;;2091434;28;1229;-83
2022/07/13 01:14:57;;;;;;;;;;;25.30;47.10;;;;;;2091438;28;1385;-84
2022/07/13 01:15:57;;;;;;;;;;;25.30;47.20;;;;;;2091269;28;1376;-85
2022/07/13 01:16:57;;;;;;;;;;;25.30;47.10;;;;;;2091374;28;1240;-81
2022/07/13 01:17:58;;;;;;;;;;;25.30;47.20;;;;;;2099480;28;1247;-83
2022/07/13 01:18:58;;;;;;;;;;;25.30;47.10;;;;;;2091303;28;1211;-83
2022/07/13 01:19:58;;;;;;;;;;;25.30;47.10;;;;;;2099597;28;943;-83
2022/07/13 01:20:59;;;;;;;;;;;25.30;47.10;;;;;;2099542;28;1280;-83
2022/07/13 01:22:02;;;;;;;;;;;25.30;47.10;;;;;;2099784;28;897;-82
2022/07/13 01:23:02;;;;;;;;;;;25.30;47.10;;;;;;2100361;28;928;-83
2022/07/13 01:24:03;;;;;;;;;;;25.30;47.20;;;;;;2100452;28;889;-82
2022/07/13 01:25:03;;;;;;;;;;;25.30;47.20;;;;;;2099670;28;1205;-84
2022/07/13 01:26:04;;;;;;;;;;;25.30;47.20;;;;;;2091469;28;1214;-83
2022/07/13 01:27:04;;;;;;;;;;;25.30;47.20;;;;;;2099575;28;866;-82
2022/07/13 01:28:04;;;;;;;;;;;25.30;47.20;;;;;;2099696;28;1184;-83
2022/07/13 01:29:05;;;;;;;;;;;25.30;47.20;;;;;;2091299;28;1261;-82
2022/07/13 01:30:05;;;;;;;;;;;25.30;47.20;;;;;;2099678;28;849;-82
2022/07/13 01:31:05;;;;;;;;;;;25.30;47.20;;;;;;2107920;28;1256;-83
2022/07/13 01:32:06;;;;;;;;;;;25.30;47.30;;;;;;2099618;28;1225;-82
2022/07/13 01:33:15;;;;;;;;;;;25.30;47.20;;;;;;2091426;28;1371;-83
2022/07/13 01:34:16;;;;;;;;;;;25.30;47.20;;;;;;2099678;28;924;-83
2022/07/13 01:35:16;;;;;;;;;;;25.30;47.30;;;;;;2099479;28;1345;-83
2022/07/13 01:36:17;;;;;;;;;;;25.30;47.30;;;;;;2099461;28;1048;-83
2022/07/13 01:37:17;;;;;;;;;;;25.30;47.30;;;;;;2099704;28;1234;-83
2022/07/13 01:38:17;;;;;;;;;;;25.30;47.30;;;;;;2099843;28;821;-83
2022/07/13 01:39:18;;;;;;;;;;;25.30;47.30;;;;;;2100222;28;996;-83
2022/07/13 01:40:18;;;;;;;;;;;25.30;47.30;;;;;;2099528;28;1333;-82
2022/07/13 01:41:18;;;;;;;;;;;25.30;47.40;;;;;;2091313;28;1387;-84
2022/07/13 01:42:19;;;;;;;;;;;25.30;47.30;;;;;;2099577;28;1911;-84
2022/07/13 01:43:20;;;;;;;;;;;25.30;47.30;;;;;;2099466;28;1238;-83
2022/07/13 01:44:21;;;;;;;;;;;25.30;47.20;;;;;;2099721;28;900;-82
2022/07/13 01:45:22;;;;;;;;;;;25.30;47.30;;;;;;2100967;28;1250;-82
2022/07/13 01:46:23;;;;;;;;;;;25.30;47.30;;;;;;2093387;28;1382;-82
2022/07/13 01:47:23;;;;;;;;;;;25.30;47.40;;;;;;2100435;28;841;-82
2022/07/13 01:48:24;;;;;;;;;;;25.30;47.40;;;;;;2108682;28;1382;-82
2022/07/13 01:49:24;;;;;;;;;;;25.30;47.40;;;;;;2108821;28;1035;-83
2022/07/13 01:50:25;;;;;;;;;;;25.30;47.40;;;;;;2100624;28;1257;-82
2022/07/13 01:51:25;;;;;;;;;;;25.30;47.40;;;;;;2100272;28;1419;-83
2022/07/13 01:52:26;;;;;;;;;;;25.30;47.30;;;;;;2092114;28;1315;-83
2022/07/13 01:53:26;;;;;;;;;;;25.30;47.40;;;;;;2100373;28;1055;-83
2022/07/13 01:54:26;;;;;;;;;;;25.30;47.40;;;;;;2100424;28;1383;-83
2022/07/13 01:55:27;;;;;;;;;;;25.30;47.40;;;;;;2091853;28;1213;-83
2022/07/13 01:56:27;;;;;;;;;;;25.30;47.40;;;;;;2091803;28;1249;-83
2022/07/13 01:57:29;;;;;;;;;;;25.30;47.40;;;;;;2100579;28;1106;-83
2022/07/13 01:58:30;;;;;;;;;;;25.30;47.40;;;;;;2100646;28;1458;-83
2022/07/13 01:59:31;;;;;;;;;;;25.30;47.40;;;;;;2100475;28;909;-83
2022/07/13 02:00:31;;;;;;;;;;;25.30;47.40;;;;;;2108690;28;1280;-83
2022/07/13 02:01:31;;;;;;;;;;;25.30;47.40;;;;;;2100186;28;1187;-83
2022/07/13 02:02:32;;;;;;;;;;;25.30;47.50;;;;;;2100521;28;1902;-83
2022/07/13 02:03:32;;;;;;;;;;;25.30;47.40;;;;;;2100534;28;1276;-83
2022/07/13 02:04:32;;;;;;;;;;;25.30;47.50;;;;;;2091825;28;1299;-82
2022/07/13 02:05:33;;;;;;;;;;;25.30;47.40;;;;;;2100393;28;833;-83
2022/07/13 02:06:33;;;;;;;;;;;25.30;47.50;;;;;;2101071;28;1035;-83
2022/07/13 02:07:34;;;;;;;;;;;25.30;47.40;;;;;;2100654;28;1355;-83
2022/07/13 02:08:34;;;;;;;;;;;25.30;47.40;;;;;;2092916;28;1266;-83
2022/07/13 02:09:34;;;;;;;;;;;25.30;47.50;;;;;;2101805;28;1206;-83
2022/07/13 02:10:35;;;;;;;;;;;25.30;47.50;;;;;;2093235;28;1371;-82
2022/07/13 02:11:35;;;;;;;;;;;25.30;47.50;;;;;;2101359;28;1388;-82
2022/07/13 02:12:35;;;;;;;;;;;25.30;47.50;;;;;;2092859;28;1254;-85
2022/07/13 02:13:36;;;;;;;;;;;25.30;47.40;;;;;;2101103;28;825;-83
2022/07/13 02:14:37;;;;;;;;;;;25.30;47.40;;;;;;2100892;28;1286;-83
2022/07/13 02:15:37;;;;;;;;;;;25.30;47.40;;;;;;2100995;28;1019;-83
2022/07/13 02:16:37;;;;;;;;;;;25.30;47.40;;;;;;2101597;28;852;-83
2022/07/13 02:17:38;;;;;;;;;;;25.30;47.50;;;;;;2101171;28;1222;-82
2022/07/13 02:18:38;;;;;;;;;;;25.30;47.50;;;;;;2092675;28;1221;-83
2022/07/13 02:19:38;;;;;;;;;;;25.30;47.50;;;;;;2100799;28;934;-82
2022/07/13 02:20:39;;;;;;;;;;;25.30;47.40;;;;;;2100944;28;1373;-83
2022/07/13 02:21:39;;;;;;;;;;;25.30;47.40;;;;;;2101034;28;1003;-82
2022/07/13 02:22:40;;;;;;;;;;;25.30;47.50;;;;;;2101462;28;1957;-83
2022/07/13 02:23:40;;;;;;;;;;;25.30;47.50;;;;;;2100864;28;1348;-83
2022/07/13 02:24:40;;;;;;;;;;;25.30;47.50;;;;;;2092572;28;1246;-83
2022/07/13 02:25:41;;;;;;;;;;;25.30;47.50;;;;;;2100729;28;1371;-82
2022/07/13 02:26:41;;;;;;;;;;;25.30;47.40;;;;;;2092742;28;1333;-82
2022/07/13 02:27:42;;;;;;;;;;;25.30;47.50;;;;;;2100772;28;1340;-83
2022/07/13 02:28:42;;;;;;;;;;;25.30;47.40;;;;;;2092802;28;1262;-83
2022/07/13 02:29:42;;;;;;;;;;;25.30;47.40;;;;;;2092536;28;1249;-83
2022/07/13 02:30:43;;;;;;;;;;;25.30;47.40;;;;;;2100795;28;1232;-83
2022/07/13 02:31:43;;;;;;;;;;;25.30;47.40;;;;;;2092497;28;1379;-83
2022/07/13 02:32:43;;;;;;;;;;;25.30;47.30;;;;;;2100903;28;932;-82
2022/07/13 02:33:44;;;;;;;;;;;25.30;47.40;;;;;;2101414;28;999;-83
2022/07/13 02:34:44;;;;;;;;;;;25.30;47.40;;;;;;2100633;28;1249;-83
2022/07/13 02:35:44;;;;;;;;;;;25.30;47.30;;;;;;2100836;28;1086;-83
2022/07/13 02:36:45;;;;;;;;;;;25.30;47.40;;;;;;2101308;28;1071;-82
2022/07/13 02:37:45;;;;;;;;;;;25.30;47.40;;;;;;2101426;28;1078;-83
2022/07/13 02:38:46;;;;;;;;;;;25.30;47.30;;;;;;2100681;28;1651;-82
2022/07/13 02:39:46;;;;;;;;;;;25.30;47.30;;;;;;2100848;28;1072;-83
2022/07/13 02:40:46;;;;;;;;;;;25.30;47.40;;;;;;2101195;28;1039;-82
2022/07/13 02:41:47;;;;;;;;;;;25.30;47.30;;;;;;2100730;28;1377;-83
2022/07/13 02:42:47;;;;;;;;;;;25.30;47.30;;;;;;2092343;28;1910;-83
2022/07/13 02:43:48;;;;;;;;;;;25.30;47.40;;;;;;2101092;28;821;-82
2022/07/13 02:44:48;;;;;;;;;;;25.30;47.30;;;;;;2109089;28;1189;-83
2022/07/13 02:45:49;;;;;;;;;;;25.30;47.30;;;;;;2109409;28;876;-83
2022/07/13 02:46:49;;;;;;;;;;;25.30;47.30;;;;;;2101471;28;1125;-82
2022/07/13 02:47:50;;;;;;;;;;;25.30;47.40;;;;;;2101568;28;921;-83
2022/07/13 02:48:51;;;;;;;;;;;25.30;47.30;;;;;;2102024;28;904;-82
2022/07/13 02:49:52;;;;;;;;;;;25.30;47.40;;;;;;2100687;28;1228;-83
2022/07/13 02:50:52;;;;;;;;;;;25.30;47.40;;;;;;2092471;28;1381;-83
2022/07/13 02:51:52;;;;;;;;;;;25.30;47.40;;;;;;2100657;28;1024;-82
2022/07/13 02:52:53;;;;;;;;;;;25.30;47.40;;;;;;2101351;28;893;-83
2022/07/13 02:53:53;;;;;;;;;;;25.30;47.40;;;;;;2100685;28;1231;-83
2022/07/13 02:54:53;;;;;;;;;;;25.30;47.40;;;;;;2100705;28;1267;-83
2022/07/13 02:55:54;;;;;;;;;;;25.30;47.30;;;;;;2101306;28;821;-82
2022/07/13 02:56:55;;;;;;;;;;;25.30;47.40;;;;;;2100513;28;1392;-83
2022/07/13 02:57:55;;;;;;;;;;;25.30;47.40;;;;;;2100788;28;871;-83
2022/07/13 02:58:56;;;;;;;;;;;25.30;47.30;;;;;;2100766;28;1206;-83
2022/07/13 02:59:56;;;;;;;;;;;25.30;47.30;;;;;;2100858;28;837;-83
2022/07/13 03:00:57;;;;;;;;;;;25.30;47.30;;;;;;2100512;28;1238;-83
2022/07/13 03:01:57;;;;;;;;;;;25.30;47.40;;;;;;2092427;28;1347;-83
2022/07/13 03:02:57;;;;;;;;;;;25.30;47.30;;;;;;2092196;28;1898;-82
2022/07/13 03:03:58;;;;;;;;;;;25.30;47.30;;;;;;2092232;28;1369;-83
2022/07/13 03:04:58;;;;;;;;;;;25.30;47.30;;;;;;2100695;28;1275;-83
2022/07/13 03:06:01;;;;;;;;;;;25.30;47.30;;;;;;2101194;28;858;-83
2022/07/13 03:07:02;;;;;;;;;;;25.30;47.40;;;;;;2100661;28;1259;-82
2022/07/13 03:08:02;;;;;;;;;;;25.30;47.30;;;;;;2100594;28;922;-82
2022/07/13 03:09:03;;;;;;;;;;;25.30;47.30;;;;;;2100569;28;1245;-83
2022/07/13 03:10:03;;;;;;;;;;;25.30;47.30;;;;;;2100590;28;1022;-83
2022/07/13 03:11:04;;;;;;;;;;;25.30;47.20;;;;;;2100597;28;1361;-83
2022/07/13 03:12:04;;;;;;;;;;;25.30;47.20;;;;;;2092316;28;1383;-84
2022/07/13 03:13:05;;;;;;;;;;;25.30;47.30;;;;;;2092144;28;1395;-83
2022/07/13 03:14:05;;;;;;;;;;;25.30;47.30;;;;;;2092144;28;1349;-83
2022/07/13 03:15:05;;;;;;;;;;;25.30;47.30;;;;;;2100530;28;1173;-83
2022/07/13 03:16:06;;;;;;;;;;;25.30;47.30;;;;;;2100524;28;1163;-83
2022/07/13 03:17:06;;;;;;;;;;;25.30;47.30;;;;;;2100476;28;1111;-84
2022/07/13 03:18:07;;;;;;;;;;;25.30;47.30;;;;;;2101172;28;872;-83
2022/07/13 03:19:08;;;;;;;;;;;25.30;47.30;;;;;;2100134;28;1358;-83
2022/07/13 03:20:08;;;;;;;;;;;25.30;47.30;;;;;;2100852;28;902;-83
2022/07/13 03:21:08;;;;;;;;;;;25.30;47.30;;;;;;2100543;28;1355;-83
2022/07/13 03:22:09;;;;;;;;;;;25.30;47.30;;;;;;2100469;28;1898;-83
2022/07/13 03:23:09;;;;;;;;;;;25.30;47.30;;;;;;2108702;28;1270;-83
2022/07/13 03:24:09;;;;;;;;;;;25.30;47.30;;;;;;2108763;28;1095;-83
2022/07/13 03:25:10;;;;;;;;;;;25.30;47.30;;;;;;2100917;28;1173;-83
2022/07/13 03:26:10;;;;;;;;;;;25.30;47.30;;;;;;2100995;28;873;-83
2022/07/13 03:27:11;;;;;;;;;;;25.30;47.30;;;;;;2100981;28;1044;-83
2022/07/13 03:28:11;;;;;;;;;;;25.30;47.40;;;;;;2100139;28;1387;-83
2022/07/13 03:29:11;;;;;;;;;;;25.30;47.40;;;;;;2091873;28;1102;-83
2022/07/13 03:30:12;;;;;;;;;;;25.30;47.40;;;;;;2100249;28;1354;-83
2022/07/13 03:31:12;;;;;;;;;;;25.30;47.40;;;;;;2100190;28;972;-83
2022/07/13 03:32:12;;;;;;;;;;;25.30;47.40;;;;;;2100352;28;1371;-83
2022/07/13 03:33:13;;;;;;;;;;;25.30;47.30;;;;;;2092088;28;1399;-83
2022/07/13 03:34:13;;;;;;;;;;;25.30;47.30;;;;;;2100070;28;1203;-83
2022/07/13 03:35:14;;;;;;;;;;;25.30;47.40;;;;;;2091977;28;1300;-83
2022/07/13 03:36:14;;;;;;;;;;;25.30;47.40;;;;;;2100333;28;1249;-83
2022/07/13 03:37:15;;;;;;;;;;;25.30;47.40;;;;;;2100608;28;992;-83
2022/07/13 03:38:15;;;;;;;;;;;25.30;47.40;;;;;;2100232;28;1374;-83
2022/07/13 03:39:16;;;;;;;;;;;25.30;47.40;;;;;;2100204;28;1366;-83
2022/07/13 03:40:16;;;;;;;;;;;25.30;47.40;;;;;;2108627;28;896;-82
2022/07/13 03:41:16;;;;;;;;;;;25.30;47.40;;;;;;2100061;28;1392;-83
2022/07/13 03:42:17;;;;;;;;;;;25.30;47.40;;;;;;2099882;28;1959;-83
2022/07/13 03:43:17;;;;;;;;;;;25.30;47.30;;;;;;2100386;28;905;-84
2022/07/13 03:44:18;;;;;;;;;;;25.30;47.40;;;;;;2100035;28;1262;-83
2022/07/13 03:45:18;;;;;;;;;;;25.30;47.40;;;;;;2091839;28;1204;-83
2022/07/13 03:46:19;;;;;;;;;;;25.30;47.40;;;;;;2091984;28;1269;-83
2022/07/13 03:47:19;;;;;;;;;;;25.30;47.40;;;;;;2100270;28;964;-83
2022/07/13 03:48:20;;;;;;;;;;;25.30;47.40;;;;;;2108470;28;1233;-83
2022/07/13 03:49:20;;;;;;;;;;;25.30;47.40;;;;;;2108485;28;1084;-83
2022/07/13 03:50:21;;;;;;;;;;;25.30;47.40;;;;;;2100739;28;845;-82
2022/07/13 03:51:21;;;;;;;;;;;25.30;47.50;;;;;;2099916;28;1494;-83
2022/07/13 03:52:21;;;;;;;;;;;25.30;47.40;;;;;;2100133;28;1029;-83
2022/07/13 03:53:22;;;;;;;;;;;25.30;47.40;;;;;;2100109;28;1217;-84
2022/07/13 03:54:22;;;;;;;;;;;25.30;47.40;;;;;;2091880;28;1261;-83
2022/07/13 03:55:22;;;;;;;;;;;25.30;47.40;;;;;;2091737;28;1318;-83
2022/07/13 03:56:23;;;;;;;;;;;25.30;47.40;;;;;;2100202;28;937;-83
2022/07/13 03:57:24;;;;;;;;;;;25.30;47.30;;;;;;2100147;28;1339;-83
2022/07/13 03:58:24;;;;;;;;;;;25.30;47.30;;;;;;2099983;28;1285;-83
2022/07/13 03:59:24;;;;;;;;;;;25.30;47.30;;;;;;2100101;28;929;-82
2022/07/13 04:00:25;;;;;;;;;;;25.30;47.40;;;;;;2100751;28;988;-83
2022/07/13 04:01:25;;;;;;;;;;;25.30;47.40;;;;;;2100220;28;1304;-83
2022/07/13 04:02:25;;;;;;;;;;;25.30;47.40;;;;;;2091720;28;1950;-83
2022/07/13 04:03:26;;;;;;;;;;;25.30;47.40;;;;;;2099971;28;1140;-83
2022/07/13 04:04:27;;;;;;;;;;;25.30;47.40;;;;;;2099920;28;1169;-83
2022/07/13 04:05:27;;;;;;;;;;;25.30;47.40;;;;;;2100570;28;884;-83
2022/07/13 04:06:28;;;;;;;;;;;25.30;47.30;;;;;;2100694;28;864;-83
2022/07/13 04:07:28;;;;;;;;;;;25.30;47.30;;;;;;2100046;28;1253;-83
2022/07/13 04:08:29;;;;;;;;;;;25.30;47.40;;;;;;2091724;28;1148;-83
2022/07/13 04:09:29;;;;;;;;;;;25.30;47.30;;;;;;2099914;28;1280;-83
2022/07/13 04:10:29;;;;;;;;;;;25.30;47.30;;;;;;2091798;28;1205;-83
2022/07/13 04:11:30;;;;;;;;;;;25.30;47.30;;;;;;2099783;28;1643;-82
2022/07/13 04:12:30;;;;;;;;;;;25.30;47.30;;;;;;2099964;28;952;-82
2022/07/13 04:13:30;;;;;;;;;;;25.30;47.30;;;;;;2099972;28;1233;-82
2022/07/13 04:14:31;;;;;;;;;;;25.30;47.30;;;;;;2099871;28;1260;-82
2022/07/13 04:15:31;;;;;;;;;;;25.30;47.30;;;;;;2100503;28;914;-82
2022/07/13 04:16:32;;;;;;;;;;;25.30;47.30;;;;;;2099875;28;1333;-83
2022/07/13 04:17:32;;;;;;;;;;;25.30;47.40;;;;;;2091656;28;1172;-82
2022/07/13 04:18:32;;;;;;;;;;;25.30;47.40;;;;;;2099820;28;1267;-82
2022/07/13 04:19:33;;;;;;;;;;;25.30;47.40;;;;;;2091518;28;1164;-83
2022/07/13 04:20:33;;;;;;;;;;;25.30;47.30;;;;;;2099781;28;1347;-82
2022/07/13 04:21:33;;;;;;;;;;;25.30;47.30;;;;;;2099942;28;841;-82
2022/07/13 04:22:34;;;;;;;;;;;25.30;47.40;;;;;;2099561;28;1953;-83
2022/07/13 04:23:34;;;;;;;;;;;25.30;47.30;;;;;;2099867;28;859;-82
2022/07/13 04:24:35;;;;;;;;;;;25.30;47.30;;;;;;2108193;28;1204;-82
2022/07/13 04:25:35;;;;;;;;;;;25.30;47.30;;;;;;2108238;28;1032;-82
2022/07/13 04:26:35;;;;;;;;;;;25.30;47.30;;;;;;2099837;28;1252;-83
2022/07/13 04:27:36;;;;;;;;;;;25.30;47.30;;;;;;2099762;28;1232;-83
2022/07/13 04:28:36;;;;;;;;;;;25.30;47.30;;;;;;2091545;28;1346;-82
2022/07/13 04:29:37;;;;;;;;;;;25.30;47.30;;;;;;2099840;28;1308;-82
2022/07/13 04:30:37;;;;;;;;;;;25.30;47.30;;;;;;2108166;28;857;-83
2022/07/13 04:31:37;;;;;;;;;;;25.30;47.30;;;;;;2100047;28;939;-82
2022/07/13 04:32:38;;;;;;;;;;;25.30;47.30;;;;;;2099598;28;1269;-83
2022/07/13 04:33:38;;;;;;;;;;;25.30;47.30;;;;;;2091263;28;1252;-83
2022/07/13 04:34:38;;;;;;;;;;;25.30;47.40;;;;;;2099776;28;1319;-83
2022/07/13 04:35:39;;;;;;;;;;;25.30;47.30;;;;;;2100517;28;999;-82
2022/07/13 04:36:39;;;;;;;;;;;25.30;47.30;;;;;;2099589;28;1429;-82
2022/07/13 04:37:39;;;;;;;;;;;25.30;47.30;;;;;;2091359;28;1266;-84
2022/07/13 04:38:40;;;;;;;;;;;25.30;47.30;;;;;;2099712;28;1087;-82
2022/07/13 04:39:40;;;;;;;;;;;25.30;47.30;;;;;;2099911;28;1484;-82
2022/07/13 04:40:40;;;;;;;;;;;25.30;47.30;;;;;;2091552;28;1238;-82
2022/07/13 04:41:41;;;;;;;;;;;25.30;47.30;;;;;;2099654;28;1027;-82
2022/07/13 04:42:41;;;;;;;;;;;25.30;47.30;;;;;;2107886;28;1898;-82
2022/07/13 04:43:45;;;;;;;;;;;25.30;47.30;;;;;;2108096;28;936;-82
2022/07/13 04:44:45;;;;;;;;;;;25.30;47.20;;;;;;2099656;28;1376;-82
2022/07/13 04:45:46;;;;;;;;;;;25.40;47.60;;;;;;2099751;28;1234;-82
2022/07/13 04:46:46;;;;;;;;;;;25.40;47.70;;;;;;2091464;28;1231;-81
2022/07/13 04:47:47;;;;;;;;;;;25.30;47.90;;;;;;2099658;28;1268;-82
2022/07/13 04:48:47;;;;;;;;;;;25.40;47.90;;;;;;2099621;28;1232;-82
2022/07/13 04:49:47;;;;;;;;;;;25.40;48.00;;;;;;2099727;28;1081;-83
2022/07/13 04:50:48;;;;;;;;;;;25.40;47.90;;;;;;2099400;28;1384;-82
2022/07/13 04:51:48;;;;;;;;;;;25.40;48.00;;;;;;2099595;28;1184;-82
2022/07/13 04:52:48;;;;;;;;;;;25.50;47.90;;;;;;2107919;28;1372;-82
2022/07/13 04:53:49;;;;;;;;;;;25.50;48.00;;;;;;2099730;28;876;-82
2022/07/13 04:54:49;;;;;;;;;;;25.50;48.10;;;;;;2100097;28;1271;-83
2022/07/13 04:55:50;;;;;;;;;;;25.50;48.10;;;;;;2099635;28;1224;-82
2022/07/13 04:56:50;;;;;;;;;;;25.50;48.10;;;;;;2091327;28;1244;-81
2022/07/13 04:57:51;;;;;;;;;;;25.40;48.00;;;;;;2099888;28;944;-81
2022/07/13 04:58:51;;;;;;;;;;;25.50;48.10;;;;;;2099547;28;1212;-82
2022/07/13 04:59:51;;;;;;;;;;;25.50;48.20;;;;;;2091222;28;1336;-81
2022/07/13 05:00:52;;;;;;;;;;;25.50;48.10;;;;;;2099434;28;1064;-82
2022/07/13 05:01:53;;;;;;;;;;;25.50;48.10;;;;;;2108099;28;1218;-82
2022/07/13 05:02:53;;;;;;;;;;;25.40;48.20;;;;;;2099522;28;1965;-82
2022/07/13 05:03:54;;;;;;;;;;;25.50;48.20;;;;;;2099453;28;1347;-82
2022/07/13 05:04:54;;;;;;;;;;;25.40;48.20;;;;;;2091270;28;1280;-82
2022/07/13 05:05:54;;;;;;;;;;;25.50;48.20;;;;;;2099733;28;1027;-82
2022/07/13 05:06:55;;;;;;;;;;;25.50;48.20;;;;;;2100369;28;1003;-82
2022/07/13 05:07:55;;;;;;;;;;;25.50;48.20;;;;;;2100205;28;884;-82
2022/07/13 05:08:55;;;;;;;;;;;25.50;48.20;;;;;;2099562;28;1374;-82
2022/07/13 05:09:56;;;;;;;;;;;25.50;48.10;;;;;;2091231;28;1442;-82
2022/07/13 05:10:56;;;;;;;;;;;25.50;48.20;;;;;;2099543;28;1273;-82
2022/07/13 05:11:57;;;;;;;;;;;25.50;48.20;;;;;;2099670;28;1027;-82
2022/07/13 05:12:57;;;;;;;;;;;25.50;48.20;;;;;;2100276;28;907;-82
2022/07/13 05:13:58;;;;;;;;;;;25.40;48.20;;;;;;2100214;28;834;-82
2022/07/13 05:14:59;;;;;;;;;;;25.40;48.20;;;;;;2099403;28;1360;-82
2022/07/13 05:15:59;;;;;;;;;;;25.40;48.20;;;;;;2091371;28;1293;-82
2022/07/13 05:16:59;;;;;;;;;;;25.40;48.20;;;;;;2099645;28;929;-82
2022/07/13 05:18:00;;;;;;;;;;;25.40;48.10;;;;;;2099420;28;1380;-82
2022/07/13 05:19:01;;;;;;;;;;;25.40;48.10;;;;;;2091120;28;1250;-82
2022/07/13 05:20:01;;;;;;;;;;;25.40;48.20;;;;;;2099666;28;841;-82
2022/07/13 05:21:01;;;;;;;;;;;25.40;48.00;;;;;;2099510;28;1323;-82
2022/07/13 05:22:02;;;;;;;;;;;25.40;48.00;;;;;;2091296;28;1240;-82
2022/07/13 05:23:02;;;;;;;;;;;25.40;48.10;;;;;;2099415;28;1902;-82
2022/07/13 05:24:03;;;;;;;;;;;25.40;48.10;;;;;;2099378;28;1379;-82
2022/07/13 05:25:03;;;;;;;;;;;25.40;48.00;;;;;;2091265;28;1292;-82
2022/07/13 05:26:07;;;;;;;;;;;25.40;48.00;;;;;;2091128;28;1259;-82
2022/07/13 05:27:07;;;;;;;;;;;25.40;48.00;;;;;;2091291;28;1384;-82
2022/07/13 05:28:07;;;;;;;;;;;25.40;47.90;;;;;;2091254;28;1235;-82
2022/07/13 05:29:08;;;;;;;;;;;25.40;48.00;;;;;;2099586;28;851;-82
2022/07/13 05:30:08;;;;;;;;;;;25.40;48.00;;;;;;2099384;28;1361;-82
2022/07/13 05:31:08;;;;;;;;;;;25.40;47.90;;;;;;2099215;28;1392;-82
2022/07/13 05:32:09;;;;;;;;;;;25.40;47.90;;;;;;2099412;28;1230;-82
2022/07/13 05:33:09;;;;;;;;;;;25.40;47.90;;;;;;2099502;28;963;-82
2022/07/13 05:34:09;;;;;;;;;;;25.40;47.90;;;;;;2099997;28;941;-81
2022/07/13 05:35:10;;;;;;;;;;;25.40;47.90;;;;;;2099329;28;1237;-82
2022/07/13 05:36:10;;;;;;;;;;;25.40;47.90;;;;;;2090980;28;1271;-82
2022/07/13 05:37:11;;;;;;;;;;;25.40;47.90;;;;;;2099393;28;1499;-82
2022/07/13 05:38:11;;;;;;;;;;;25.40;47.90;;;;;;2091225;28;1374;-82
2022/07/13 05:39:12;;;;;;;;;;;25.30;47.90;;;;;;2099480;28;1366;-82
2022/07/13 05:40:13;;;;;;;;;;;25.40;47.90;;;;;;2091119;28;1398;-82
2022/07/13 05:41:13;;;;;;;;;;;25.40;47.90;;;;;;2099431;28;1245;-82
2022/07/13 05:42:13;;;;;;;;;;;25.40;47.90;;;;;;2091392;28;1909;-82
2022/07/13 05:43:14;;;;;;;;;;;25.40;47.90;;;;;;2092904;28;1246;-82
2022/07/13 05:44:14;;;;;;;;;;;25.40;47.80;;;;;;2101286;28;995;-82
2022/07/13 05:45:15;;;;;;;;;;;25.40;47.80;;;;;;2101634;28;1172;-82
2022/07/13 05:46:15;;;;;;;;;;;25.40;47.80;;;;;;2100991;28;1246;-82
2022/07/13 05:47:15;;;;;;;;;;;25.40;47.90;;;;;;2101072;28;1091;-82
2022/07/13 05:48:16;;;;;;;;;;;25.40;47.90;;;;;;2100846;28;1363;-82
2022/07/13 05:49:16;;;;;;;;;;;25.40;47.90;;;;;;2092599;28;1254;-82
2022/07/13 05:50:16;;;;;;;;;;;25.40;47.80;;;;;;2092728;28;1236;-82
2022/07/13 05:51:17;;;;;;;;;;;25.40;47.80;;;;;;2101027;28;980;-82
2022/07/13 05:52:17;;;;;;;;;;;25.40;47.80;;;;;;2101654;28;892;-82
2022/07/13 05:53:19;;;;;;;;;;;25.40;47.80;;;;;;2100992;28;1206;-82
2022/07/13 05:54:19;;;;;;;;;;;25.40;47.80;;;;;;2092935;28;1417;-82
2022/07/13 05:55:19;;;;;;;;;;;25.40;47.80;;;;;;2092486;28;1288;-82
2022/07/13 05:56:20;;;;;;;;;;;25.30;47.70;;;;;;2101067;28;912;-81
2022/07/13 05:57:20;;;;;;;;;;;25.40;47.70;;;;;;2101728;28;835;-82
2022/07/13 05:58:21;;;;;;;;;;;25.40;47.80;;;;;;2101684;28;914;-82